Metar Cercanos

 

LEPA - Palma De Mallorc, Spain
Distance from station: ONO 38km
Actualización: Mon, 03-Oct-2022 10:30am CEST
Despejado
Despejado
 Viento del calm
Viento: Calma
Temperatura: 20°C
Rocío: 13°C
Humedad: 64%
Barómetro: 1022 hPa
Resumen: Despejado
Visibility: greater than 10 km
2022/10/03 08:30 LEPA 030830Z 00000KT CAVOK 20/13 Q1022 NOSIG
LEMH - Mahon/Menorca Is, Spain
Distance from station: ENE 105km
Actualización: Mon, 03-Oct-2022 10:30am CEST
Few Clouds
Few Clouds
 Viento del NNE
Viento: NNE 19 km/h
Temperatura: 23°C
Rocío: 19°C
Humedad: 78%
Barómetro: 1022 hPa
Clouds: Few Clouds
Visibility: 10 km
Cloud details: Few Clouds 1067 m
2022/10/03 08:30 LEMH 030830Z 03010KT 360V060 9999 FEW035 23/19 Q1022
 
LEIB - Ibiza/Es Codola, Spain
Distance from station: OSO 165km
Actualización: Mon, 03-Oct-2022 10:30am CEST
Despejado
Despejado
 Viento del ENE
Viento: ENE 7 km/h
Temperatura: 23°C
Rocío: 18°C
Humedad: 74%
Barómetro: 1021 hPa
Resumen: Despejado
Visibility: greater than 10 km
2022/10/03 08:30 LEIB 030830Z 07004KT 030V130 CAVOK 23/18 Q1021 NOSIG
LEBL - Barcelona Airpor, Spain
Distance from station: NNO 225km
Actualización: Mon, 03-Oct-2022 10:30am CEST
Few Clouds
Few Clouds
 Viento del NO
Viento: NO 11 km/h
Temperatura: 20°C
Rocío: 14°C
Humedad: 69%
Barómetro: 1022 hPa
Clouds: Few Clouds
Visibility: 10 km
Cloud details: Few Clouds 914 m
2022/10/03 08:30 LEBL 030830Z 32006KT 260V360 9999 FEW030 20/14 Q1022 NOSIG
 
LEVC - Valencia (civ/Mi, Spain
Distance from station: NO 188km
Actualización: Mon, 03-Oct-2022 10:30am CEST
Few Clouds
Few Clouds
 Viento del NO
Viento: NO 9 km/h
Temperatura: 20°C
Rocío: 9°C
Humedad: 49%
Barómetro: 1022 hPa
Clouds: Few Clouds
Visibility: 10 km
Cloud details: Few Clouds 1676 m
2022/10/03 08:30 LEVC 030830Z 31005KT 9999 FEW055 20/09 Q1022 NOSIG
LEGE - Gerona/Costa Bra, Spain
Distance from station: N 276km
Actualización: Mon, 03-Oct-2022 10:30am CEST
Few Clouds
Few Clouds
 Viento del calm
Viento: Calma
Temperatura: 22°C
Rocío: 14°C
Humedad: 61%
Barómetro: 1022 hPa
Clouds: Few Clouds
Visibility: 10 km
Cloud details: Few Clouds 610 m
2022/10/03 08:30 LEGE 030830Z 00000KT 9999 FEW020 22/14 Q1022
 
LEAL - Alicante/El Alte, Spain
Distance from station: OSO 344km
Actualización: Mon, 03-Oct-2022 10:30am CEST
Despejado
Despejado
 Viento del N
Viento: N 7 km/h
Temperatura: 23°C
Rocío: 18°C
Humedad: 74%
Barómetro: 1022 hPa
Resumen: Despejado
Visibility: greater than 10 km
2022/10/03 08:30 LEAL 030830Z 35004KT 310V050 CAVOK 23/18 Q1022 NOSIG
LEAM - Almeria Airport, Spain
Distance from station: SSO 56km
Actualización: Mon, 03-Oct-2022 10:30am CEST
Despejado
Despejado
 Viento del varies
Viento: varies 2 km/h
Temperatura: 25°C
Rocío: 14°C
Humedad: 51%
Barómetro: 1021 hPa
Resumen: Despejado
Visibility: greater than 10 km
2022/10/03 08:30 LEAM 030830Z VRB01KT CAVOK 25/14 Q1021
 
LEZG - Zaragoza (mil/Ci, Spain
Distance from station: NO 431km
Actualización: Mon, 03-Oct-2022 10:30am CEST
Despejado
Despejado
 Viento del varies
Viento: varies 4 km/h
Temperatura: 17°C
Rocío: 9°C
Humedad: 59%
Barómetro: 1023 hPa
Resumen: Despejado
Visibility: greater than 10 km
2022/10/03 08:30 LEZG 030830Z VRB02KT CAVOK 17/09 Q1023
LEMD - Madrid/Barajas, Spain
Distance from station: ONO 234km
Actualización: Mon, 03-Oct-2022 10:30am CEST
Despejado
Despejado
 Viento del S
Viento: S 2 km/h
Temperatura: 16°C
Rocío: 0°C
Humedad: 34%
Barómetro: 1024 hPa
Resumen: Despejado
Visibility: greater than 10 km
2022/10/03 08:30 LEMD 030830Z 19001KT CAVOK 16/M00 Q1024 NOSIG
 
LEGR - Granada Airport, Spain
Distance from station: OSO 62km
Actualización: Mon, 03-Oct-2022 10:30am CEST
Parcialmente nuboso
Parcialmente nuboso
 Viento del calm
Viento: Calma
Temperatura: 21°C
Rocío: 11°C
Humedad: 53%
Barómetro: 1024 hPa
Clouds: Parcialmente nuboso
Visibility: 10 km
Cloud details: Parcialmente nuboso 975 m
2022/10/03 08:30 LEGR 030830Z 00000KT 9999 SCT032 21/11 Q1024
LEMG - Malaga (civ/Mil), Spain
Distance from station: OSO 227km
Actualización: Mon, 03-Oct-2022 10:30am CEST
Few Clouds
Few Clouds
 Viento del ONO
Viento: ONO 9 km/h
Temperatura: 20°C
Rocío: 11°C
Humedad: 56%
Barómetro: 1022 hPa
Clouds: Few Clouds
Visibility: 10 km
Cloud details: Few Clouds 1524 m
2022/10/03 08:30 LEMG 030830Z 29005KT 9999 FEW050 20/11 Q1022 NOSIG
 
LEZL - Sevilla (civ/Mil, Spain
Distance from station: S 318km
Actualización: Mon, 03-Oct-2022 10:30am CEST
Despejado
Despejado
 Viento del NE
Viento: NE 6 km/h
Temperatura: 21°C
Rocío: 10°C
Humedad: 50%
Barómetro: 1021 hPa
Resumen: Despejado
Visibility: greater than 10 km
2022/10/03 08:30 LEZL 030830Z 05003KT 020V090 CAVOK 21/10 Q1021 NOSIG
LEVT - Vitoria, Spain
Distance from station: NO 226km
Actualización: Mon, 03-Oct-2022 10:30am CEST
Mist, Cubierto
Mist, Cubierto
 Viento del calm
Viento: Calma
Temperatura: 13°C
Rocío: 13°C
Humedad: 100%
Barómetro: 1024 hPa
Resumen: Mist
Clouds: Cubierto
Visibility: 3 km
Cloud details: Cubierto 61 m
2022/10/03 08:30 LEVT 030830Z 00000KT 3000 BR OVC002 13/13 Q1024
 
LEBB - Bilbao/Sondica, Spain
Distance from station: NNO 235km
Actualización: Mon, 03-Oct-2022 10:30am CEST
Despejado
Despejado
 Viento del ESE
Viento: ESE 6 km/h
Temperatura: 16°C
Rocío: 15°C
Humedad: 94%
Barómetro: 1023 hPa
Resumen: Despejado
Visibility: greater than 10 km
2022/10/03 08:30 LEBB 030830Z 12003KT 080V160 CAVOK 16/15 Q1023 NOSIG
LESO - San Sebastian/Fu, Spain
Distance from station: N 231km
Actualización: Mon, 03-Oct-2022 10:30am CEST
Despejado
Despejado
 Viento del varies
Viento: varies 2 km/h
Temperatura: 19°C
Rocío: 16°C
Humedad: 83%
Barómetro: 1023 hPa
Resumen: Despejado
Visibility: greater than 10 km
2022/10/03 08:30 LESO 030830Z VRB01KT CAVOK 19/16 Q1023
 
LEVD - Valladolid(Mil/C, Spain
Distance from station: ONO 239km
Actualización: Mon, 03-Oct-2022 10:30am CEST
Despejado
Despejado
 Viento del ENE
Viento: ENE 7 km/h
Temperatura: 15°C
Rocío: 7°C
Humedad: 59%
Barómetro: 1024 hPa
Resumen: Despejado
Visibility: greater than 10 km
2022/10/03 08:30 LEVD 030830Z 06004KT CAVOK 15/07 Q1024
LESA - Salamanca (civ/M, Spain
Distance from station: ONO 349km
Actualización: Mon, 03-Oct-2022 10:30am CEST
Despejado
Despejado
 Viento del varies
Viento: varies 2 km/h
Temperatura: 14°C
Rocío: 5°C
Humedad: 55%
Barómetro: 1025 hPa
Resumen: Despejado
Visibility: greater than 10 km
2022/10/03 08:30 LESA 030830Z VRB01KT CAVOK 14/05 Q1025
 
LEXJ - Santander/Paraya, Spain
Distance from station: NNO 247km
Actualización: Mon, 03-Oct-2022 10:30am CEST
Despejado
Despejado
 Viento del varies
Viento: varies 2 km/h
Temperatura: 16°C
Rocío: 14°C
Humedad: 88%
Barómetro: 1023 hPa
Resumen: Despejado
Visibility: greater than 10 km
2022/10/03 08:30 LEXJ 030830Z VRB01KT CAVOK 16/14 Q1023
LEAS - Asturias/Aviles, Spain
Distance from station: NO 214km
Actualización: Mon, 03-Oct-2022 10:30am CEST
Few Clouds
Few Clouds
 Viento del SSE
Viento: SSE 9 km/h
Temperatura: 18°C
Rocío: 15°C
Humedad: 83%
Barómetro: 1023 hPa
Clouds: Few Clouds
Visibility: 10 km
Cloud details: Few Clouds 488 m
2022/10/03 08:30 LEAS 030830Z 15005KT 100V170 9999 FEW016 18/15 Q1023 NOSIG
 
LECO - La Coruna/Alvedr, Spain
Distance from station: ONO 222km
Actualización: Mon, 03-Oct-2022 10:30am CEST
Despejado
Despejado
 Viento del S
Viento: S 6 km/h
Temperatura: 13°C
Rocío: 13°C
Humedad: 100%
Barómetro: 1021 hPa
Resumen: Despejado
Visibility: greater than 10 km
2022/10/03 08:30 LECO 030830Z 19003KT 140V210 CAVOK 13/13 Q1021 NOSIG
LEVX - Vigo/Peinador, Spain
Distance from station: O 214km
Actualización: Mon, 03-Oct-2022 10:30am CEST
Despejado
Despejado
 Viento del SO
Viento: SO 15 km/h
Temperatura: 17°C
Rocío: 14°C
Humedad: 83%
Barómetro: 1021 hPa
Resumen: Despejado
Visibility: greater than 10 km
2022/10/03 08:30 LEVX 030830Z 22008KT CAVOK 17/14 Q1021 NOSIG